sensor_id;sensor_type;location;lat;lon;timestamp;temperature;humidity
15113;DHT22;7657;50.140;7.076;2022-07-09T00:00:32;19.30;99.90
15113;DHT22;7657;50.140;7.076;2022-07-09T00:03:00;19.30;99.90
15113;DHT22;7657;50.140;7.076;2022-07-09T00:05:27;19.20;99.90
15113;DHT22;7657;50.140;7.076;2022-07-09T00:07:54;19.30;99.90
15113;DHT22;7657;50.140;7.076;2022-07-09T00:10:21;19.40;99.90
15113;DHT22;7657;50.140;7.076;2022-07-09T00:12:48;19.50;99.90
15113;DHT22;7657;50.140;7.076;2022-07-09T00:15:15;19.50;99.90
15113;DHT22;7657;50.140;7.076;2022-07-09T00:17:42;19.60;99.90
15113;DHT22;7657;50.140;7.076;2022-07-09T00:20:11;19.60;99.90
15113;DHT22;7657;50.140;7.076;2022-07-09T00:22:38;19.60;99.90
15113;DHT22;7657;50.140;7.076;2022-07-09T00:25:06;19.30;99.90
15113;DHT22;7657;50.140;7.076;2022-07-09T00:27:33;19.10;99.90
15113;DHT22;7657;50.140;7.076;2022-07-09T00:29:59;19.10;99.90
15113;DHT22;7657;50.140;7.076;2022-07-09T00:32:26;19.10;99.90
15113;DHT22;7657;50.140;7.076;2022-07-09T00:34:53;19.10;99.90
15113;DHT22;7657;50.140;7.076;2022-07-09T00:37:22;19.20;99.90
15113;DHT22;7657;50.140;7.076;2022-07-09T00:39:48;19.10;99.90
15113;DHT22;7657;50.140;7.076;2022-07-09T00:42:16;19.20;99.90
15113;DHT22;7657;50.140;7.076;2022-07-09T00:44:42;19.20;99.90
15113;DHT22;7657;50.140;7.076;2022-07-09T00:47:09;19.20;99.90
15113;DHT22;7657;50.140;7.076;2022-07-09T00:49:39;19.20;99.90
15113;DHT22;7657;50.140;7.076;2022-07-09T00:52:10;19.20;99.90
15113;DHT22;7657;50.140;7.076;2022-07-09T00:54:39;19.30;99.90
15113;DHT22;7657;50.140;7.076;2022-07-09T00:57:08;19.30;99.90
15113;DHT22;7657;50.140;7.076;2022-07-09T00:59:36;19.30;99.90
15113;DHT22;7657;50.140;7.076;2022-07-09T01:02:04;19.30;99.90
15113;DHT22;7657;50.140;7.076;2022-07-09T01:04:31;19.30;99.90
15113;DHT22;7657;50.140;7.076;2022-07-09T01:06:58;19.30;99.90
15113;DHT22;7657;50.140;7.076;2022-07-09T01:09:25;19.30;99.90
15113;DHT22;7657;50.140;7.076;2022-07-09T01:11:54;19.20;99.90
15113;DHT22;7657;50.140;7.076;2022-07-09T01:14:21;19.20;99.90
15113;DHT22;7657;50.140;7.076;2022-07-09T01:16:57;19.20;99.90
15113;DHT22;7657;50.140;7.076;2022-07-09T01:19:24;19.20;99.90
15113;DHT22;7657;50.140;7.076;2022-07-09T01:21:53;19.20;99.90
15113;DHT22;7657;50.140;7.076;2022-07-09T01:24:20;19.20;99.90
15113;DHT22;7657;50.140;7.076;2022-07-09T01:26:47;19.20;99.90
15113;DHT22;7657;50.140;7.076;2022-07-09T01:29:14;19.20;99.90
15113;DHT22;7657;50.140;7.076;2022-07-09T01:31:41;19.10;99.90
15113;DHT22;7657;50.140;7.076;2022-07-09T01:34:08;19.10;99.90
15113;DHT22;7657;50.140;7.076;2022-07-09T01:36:35;19.10;99.90
15113;DHT22;7657;50.140;7.076;2022-07-09T01:39:03;19.10;99.90
15113;DHT22;7657;50.140;7.076;2022-07-09T01:41:30;19.10;99.90
15113;DHT22;7657;50.140;7.076;2022-07-09T01:43:57;19.10;99.90
15113;DHT22;7657;50.140;7.076;2022-07-09T01:46:24;19.10;99.90
15113;DHT22;7657;50.140;7.076;2022-07-09T01:48:51;19.10;99.90
15113;DHT22;7657;50.140;7.076;2022-07-09T01:51:18;19.10;99.90
15113;DHT22;7657;50.140;7.076;2022-07-09T01:53:47;19.00;99.90
15113;DHT22;7657;50.140;7.076;2022-07-09T01:56:16;19.00;99.90
15113;DHT22;7657;50.140;7.076;2022-07-09T01:58:42;19.00;99.90
15113;DHT22;7657;50.140;7.076;2022-07-09T02:01:11;19.00;99.90
15113;DHT22;7657;50.140;7.076;2022-07-09T02:03:38;18.90;99.90
15113;DHT22;7657;50.140;7.076;2022-07-09T02:06:05;18.90;99.90
15113;DHT22;7657;50.140;7.076;2022-07-09T02:08:32;18.80;99.90
15113;DHT22;7657;50.140;7.076;2022-07-09T02:10:59;18.70;99.90
15113;DHT22;7657;50.140;7.076;2022-07-09T02:13:28;18.70;99.90
15113;DHT22;7657;50.140;7.076;2022-07-09T02:15:55;18.70;99.90
15113;DHT22;7657;50.140;7.076;2022-07-09T02:18:21;18.70;99.90
15113;DHT22;7657;50.140;7.076;2022-07-09T02:20:48;18.70;99.90
15113;DHT22;7657;50.140;7.076;2022-07-09T02:23:15;18.60;99.90
15113;DHT22;7657;50.140;7.076;2022-07-09T02:25:42;18.50;99.90
15113;DHT22;7657;50.140;7.076;2022-07-09T02:28:09;18.40;99.90
15113;DHT22;7657;50.140;7.076;2022-07-09T02:30:37;18.40;99.90
15113;DHT22;7657;50.140;7.076;2022-07-09T02:33:04;18.30;99.90
15113;DHT22;7657;50.140;7.076;2022-07-09T02:35:31;18.30;99.90
15113;DHT22;7657;50.140;7.076;2022-07-09T02:37:58;18.40;99.90
15113;DHT22;7657;50.140;7.076;2022-07-09T02:40:25;18.30;99.90
15113;DHT22;7657;50.140;7.076;2022-07-09T02:42:52;18.30;99.90
15113;DHT22;7657;50.140;7.076;2022-07-09T02:45:19;18.20;99.90
15113;DHT22;7657;50.140;7.076;2022-07-09T02:47:47;18.20;99.90
15113;DHT22;7657;50.140;7.076;2022-07-09T02:50:14;18.20;99.90
15113;DHT22;7657;50.140;7.076;2022-07-09T02:52:41;18.20;99.90
15113;DHT22;7657;50.140;7.076;2022-07-09T02:55:08;18.20;99.90
15113;DHT22;7657;50.140;7.076;2022-07-09T02:57:35;18.20;99.90
15113;DHT22;7657;50.140;7.076;2022-07-09T03:00:03;18.10;99.90
15113;DHT22;7657;50.140;7.076;2022-07-09T03:02:30;18.10;99.90
15113;DHT22;7657;50.140;7.076;2022-07-09T03:04:59;18.10;99.90
15113;DHT22;7657;50.140;7.076;2022-07-09T03:07:26;18.20;99.90
15113;DHT22;7657;50.140;7.076;2022-07-09T03:09:53;18.20;99.90
15113;DHT22;7657;50.140;7.076;2022-07-09T03:12:20;18.20;99.90
15113;DHT22;7657;50.140;7.076;2022-07-09T03:14:47;18.20;99.90
15113;DHT22;7657;50.140;7.076;2022-07-09T03:17:14;18.20;99.90
15113;DHT22;7657;50.140;7.076;2022-07-09T03:19:41;18.30;99.90
15113;DHT22;7657;50.140;7.076;2022-07-09T03:22:09;18.20;99.90
15113;DHT22;7657;50.140;7.076;2022-07-09T03:24:37;18.20;99.90
15113;DHT22;7657;50.140;7.076;2022-07-09T03:27:05;18.30;99.90
15113;DHT22;7657;50.140;7.076;2022-07-09T03:29:32;18.20;99.90
15113;DHT22;7657;50.140;7.076;2022-07-09T03:31:59;18.20;99.90
15113;DHT22;7657;50.140;7.076;2022-07-09T03:34:26;18.20;99.90
15113;DHT22;7657;50.140;7.076;2022-07-09T03:36:53;18.20;99.90
15113;DHT22;7657;50.140;7.076;2022-07-09T03:39:21;18.20;99.90
15113;DHT22;7657;50.140;7.076;2022-07-09T03:41:48;18.20;99.90
15113;DHT22;7657;50.140;7.076;2022-07-09T03:44:15;18.20;99.90
15113;DHT22;7657;50.140;7.076;2022-07-09T03:46:42;18.20;99.90
15113;DHT22;7657;50.140;7.076;2022-07-09T03:49:09;18.20;99.90
15113;DHT22;7657;50.140;7.076;2022-07-09T03:51:36;18.20;99.90
15113;DHT22;7657;50.140;7.076;2022-07-09T03:54:03;18.20;99.90
15113;DHT22;7657;50.140;7.076;2022-07-09T03:56:31;18.10;99.90
15113;DHT22;7657;50.140;7.076;2022-07-09T03:58:58;18.10;99.90
15113;DHT22;7657;50.140;7.076;2022-07-09T04:01:25;18.10;99.90
15113;DHT22;7657;50.140;7.076;2022-07-09T04:03:52;18.10;99.90
15113;DHT22;7657;50.140;7.076;2022-07-09T04:06:19;18.10;99.90
15113;DHT22;7657;50.140;7.076;2022-07-09T04:08:46;18.10;99.90
15113;DHT22;7657;50.140;7.076;2022-07-09T04:11:13;18.10;99.90
15113;DHT22;7657;50.140;7.076;2022-07-09T04:13:42;18.00;99.90
15113;DHT22;7657;50.140;7.076;2022-07-09T04:16:09;18.00;99.90
15113;DHT22;7657;50.140;7.076;2022-07-09T04:18:36;18.00;99.90
15113;DHT22;7657;50.140;7.076;2022-07-09T04:21:03;18.00;99.90
15113;DHT22;7657;50.140;7.076;2022-07-09T04:23:30;18.00;99.90
15113;DHT22;7657;50.140;7.076;2022-07-09T04:25:57;18.00;99.90
15113;DHT22;7657;50.140;7.076;2022-07-09T04:28:24;18.00;99.90
15113;DHT22;7657;50.140;7.076;2022-07-09T04:30:52;18.00;99.90
15113;DHT22;7657;50.140;7.076;2022-07-09T04:33:19;18.00;99.90
15113;DHT22;7657;50.140;7.076;2022-07-09T04:35:46;18.10;99.90
15113;DHT22;7657;50.140;7.076;2022-07-09T04:38:13;18.00;99.90
15113;DHT22;7657;50.140;7.076;2022-07-09T04:40:40;18.00;99.90
15113;DHT22;7657;50.140;7.076;2022-07-09T04:43:07;18.10;99.90
15113;DHT22;7657;50.140;7.076;2022-07-09T04:45:34;18.10;99.90
15113;DHT22;7657;50.140;7.076;2022-07-09T04:48:03;18.10;99.90
15113;DHT22;7657;50.140;7.076;2022-07-09T04:50:30;18.10;99.90
15113;DHT22;7657;50.140;7.076;2022-07-09T04:52:57;18.10;99.90
15113;DHT22;7657;50.140;7.076;2022-07-09T04:55:24;18.10;99.90
15113;DHT22;7657;50.140;7.076;2022-07-09T04:57:51;18.10;99.90
15113;DHT22;7657;50.140;7.076;2022-07-09T05:00:17;18.20;99.90
15113;DHT22;7657;50.140;7.076;2022-07-09T05:02:45;18.20;99.90
15113;DHT22;7657;50.140;7.076;2022-07-09T05:05:13;18.20;99.90
15113;DHT22;7657;50.140;7.076;2022-07-09T05:07:41;18.20;99.90
15113;DHT22;7657;50.140;7.076;2022-07-09T05:10:08;18.20;99.90
15113;DHT22;7657;50.140;7.076;2022-07-09T05:12:35;18.20;99.90
15113;DHT22;7657;50.140;7.076;2022-07-09T05:15:03;18.20;99.90
15113;DHT22;7657;50.140;7.076;2022-07-09T05:17:33;18.20;99.90
15113;DHT22;7657;50.140;7.076;2022-07-09T05:20:01;18.30;99.90
15113;DHT22;7657;50.140;7.076;2022-07-09T05:22:30;18.30;99.90
15113;DHT22;7657;50.140;7.076;2022-07-09T05:24:58;18.30;99.90
15113;DHT22;7657;50.140;7.076;2022-07-09T05:27:26;18.30;99.90
15113;DHT22;7657;50.140;7.076;2022-07-09T05:29:53;18.30;99.90
15113;DHT22;7657;50.140;7.076;2022-07-09T05:32:20;18.30;99.90
15113;DHT22;7657;50.140;7.076;2022-07-09T05:34:47;18.30;99.90
15113;DHT22;7657;50.140;7.076;2022-07-09T05:37:14;18.40;99.90
15113;DHT22;7657;50.140;7.076;2022-07-09T05:39:43;18.40;99.90
15113;DHT22;7657;50.140;7.076;2022-07-09T05:42:10;18.40;99.90
15113;DHT22;7657;50.140;7.076;2022-07-09T05:44:37;18.40;99.90
15113;DHT22;7657;50.140;7.076;2022-07-09T05:47:04;18.40;99.90
15113;DHT22;7657;50.140;7.076;2022-07-09T05:49:31;18.50;99.90
15113;DHT22;7657;50.140;7.076;2022-07-09T05:51:58;18.50;99.90
15113;DHT22;7657;50.140;7.076;2022-07-09T05:54:25;18.50;99.90
15113;DHT22;7657;50.140;7.076;2022-07-09T05:56:53;18.50;99.90
15113;DHT22;7657;50.140;7.076;2022-07-09T05:59:20;18.50;99.90
15113;DHT22;7657;50.140;7.076;2022-07-09T06:01:47;18.50;99.90
15113;DHT22;7657;50.140;7.076;2022-07-09T06:04:14;18.50;99.90
15113;DHT22;7657;50.140;7.076;2022-07-09T06:06:41;18.50;99.90
15113;DHT22;7657;50.140;7.076;2022-07-09T06:09:08;18.40;99.90
15113;DHT22;7657;50.140;7.076;2022-07-09T06:11:35;18.50;99.90
15113;DHT22;7657;50.140;7.076;2022-07-09T06:14:03;18.50;99.90
15113;DHT22;7657;50.140;7.076;2022-07-09T06:16:30;18.60;99.90
15113;DHT22;7657;50.140;7.076;2022-07-09T06:18:57;18.60;99.90
15113;DHT22;7657;50.140;7.076;2022-07-09T06:21:24;18.60;99.90
15113;DHT22;7657;50.140;7.076;2022-07-09T06:23:51;18.50;99.90
15113;DHT22;7657;50.140;7.076;2022-07-09T06:26:18;18.50;99.90
15113;DHT22;7657;50.140;7.076;2022-07-09T06:28:45;18.60;99.90
15113;DHT22;7657;50.140;7.076;2022-07-09T06:31:14;18.60;99.90
15113;DHT22;7657;50.140;7.076;2022-07-09T06:33:42;18.70;99.90
15113;DHT22;7657;50.140;7.076;2022-07-09T06:36:09;18.60;99.90
15113;DHT22;7657;50.140;7.076;2022-07-09T06:38:36;18.70;99.90
15113;DHT22;7657;50.140;7.076;2022-07-09T06:41:23;18.60;99.90
15113;DHT22;7657;50.140;7.076;2022-07-09T06:43:49;18.70;99.90
15113;DHT22;7657;50.140;7.076;2022-07-09T06:46:18;18.70;99.90
15113;DHT22;7657;50.140;7.076;2022-07-09T06:48:45;18.80;99.90
15113;DHT22;7657;50.140;7.076;2022-07-09T06:51:12;18.80;99.90
15113;DHT22;7657;50.140;7.076;2022-07-09T06:53:38;18.80;99.90
15113;DHT22;7657;50.140;7.076;2022-07-09T06:56:06;18.80;99.90
15113;DHT22;7657;50.140;7.076;2022-07-09T06:58:33;18.80;99.90
15113;DHT22;7657;50.140;7.076;2022-07-09T07:01:00;18.90;99.90
15113;DHT22;7657;50.140;7.076;2022-07-09T07:03:28;18.90;99.90
15113;DHT22;7657;50.140;7.076;2022-07-09T07:05:55;18.90;99.90
15113;DHT22;7657;50.140;7.076;2022-07-09T07:08:22;18.80;99.90
15113;DHT22;7657;50.140;7.076;2022-07-09T07:10:49;18.90;99.90
15113;DHT22;7657;50.140;7.076;2022-07-09T07:13:16;18.90;99.90
15113;DHT22;7657;50.140;7.076;2022-07-09T07:15:43;18.90;99.90
15113;DHT22;7657;50.140;7.076;2022-07-09T07:18:14;18.90;99.90
15113;DHT22;7657;50.140;7.076;2022-07-09T07:20:43;18.90;99.90
15113;DHT22;7657;50.140;7.076;2022-07-09T07:23:09;19.00;99.90
15113;DHT22;7657;50.140;7.076;2022-07-09T07:25:36;19.00;99.90
15113;DHT22;7657;50.140;7.076;2022-07-09T07:28:04;19.00;99.90
15113;DHT22;7657;50.140;7.076;2022-07-09T07:30:31;19.10;99.90
15113;DHT22;7657;50.140;7.076;2022-07-09T07:32:59;19.10;99.90
15113;DHT22;7657;50.140;7.076;2022-07-09T07:35:26;19.20;99.90
15113;DHT22;7657;50.140;7.076;2022-07-09T07:37:55;19.20;99.90
15113;DHT22;7657;50.140;7.076;2022-07-09T07:40:22;19.20;99.90
15113;DHT22;7657;50.140;7.076;2022-07-09T07:42:50;19.20;99.90
15113;DHT22;7657;50.140;7.076;2022-07-09T07:45:17;19.30;99.90
15113;DHT22;7657;50.140;7.076;2022-07-09T07:47:44;19.30;99.90
15113;DHT22;7657;50.140;7.076;2022-07-09T07:50:10;19.30;99.90
15113;DHT22;7657;50.140;7.076;2022-07-09T07:52:37;19.40;99.90
15113;DHT22;7657;50.140;7.076;2022-07-09T07:55:07;19.30;99.90
15113;DHT22;7657;50.140;7.076;2022-07-09T07:57:34;19.40;99.90
15113;DHT22;7657;50.140;7.076;2022-07-09T08:00:01;19.40;99.90
15113;DHT22;7657;50.140;7.076;2022-07-09T08:02:28;19.50;99.90
15113;DHT22;7657;50.140;7.076;2022-07-09T08:04:55;19.50;99.90
15113;DHT22;7657;50.140;7.076;2022-07-09T08:07:22;19.50;99.90
15113;DHT22;7657;50.140;7.076;2022-07-09T08:09:49;19.50;99.90
15113;DHT22;7657;50.140;7.076;2022-07-09T08:12:18;19.60;99.90
15113;DHT22;7657;50.140;7.076;2022-07-09T08:14:44;19.60;99.90
15113;DHT22;7657;50.140;7.076;2022-07-09T08:17:11;19.60;99.90
15113;DHT22;7657;50.140;7.076;2022-07-09T08:19:38;19.60;99.90
15113;DHT22;7657;50.140;7.076;2022-07-09T08:22:05;19.70;99.90
15113;DHT22;7657;50.140;7.076;2022-07-09T08:24:32;19.70;99.90
15113;DHT22;7657;50.140;7.076;2022-07-09T08:26:59;19.70;99.90
15113;DHT22;7657;50.140;7.076;2022-07-09T08:29:27;19.70;99.90
15113;DHT22;7657;50.140;7.076;2022-07-09T08:31:55;19.80;99.90
15113;DHT22;7657;50.140;7.076;2022-07-09T08:34:22;19.80;99.90
15113;DHT22;7657;50.140;7.076;2022-07-09T08:36:49;19.80;99.90
15113;DHT22;7657;50.140;7.076;2022-07-09T08:39:16;19.90;99.90
15113;DHT22;7657;50.140;7.076;2022-07-09T08:41:43;19.90;99.90
15113;DHT22;7657;50.140;7.076;2022-07-09T08:44:10;19.90;99.90
15113;DHT22;7657;50.140;7.076;2022-07-09T08:46:39;19.90;99.90
15113;DHT22;7657;50.140;7.076;2022-07-09T08:49:07;20.00;99.90
15113;DHT22;7657;50.140;7.076;2022-07-09T08:51:35;20.00;99.90
15113;DHT22;7657;50.140;7.076;2022-07-09T08:54:02;20.10;99.90
15113;DHT22;7657;50.140;7.076;2022-07-09T08:56:29;20.20;99.90
15113;DHT22;7657;50.140;7.076;2022-07-09T08:58:56;20.20;99.90
15113;DHT22;7657;50.140;7.076;2022-07-09T09:01:25;20.10;99.90
15113;DHT22;7657;50.140;7.076;2022-07-09T09:03:54;20.10;99.90
15113;DHT22;7657;50.140;7.076;2022-07-09T09:06:22;20.10;99.90
15113;DHT22;7657;50.140;7.076;2022-07-09T09:08:53;20.10;99.90
15113;DHT22;7657;50.140;7.076;2022-07-09T09:11:22;20.20;99.90
15113;DHT22;7657;50.140;7.076;2022-07-09T09:13:50;20.20;99.90
15113;DHT22;7657;50.140;7.076;2022-07-09T09:16:18;20.20;99.90
15113;DHT22;7657;50.140;7.076;2022-07-09T09:18:48;20.30;99.90
15113;DHT22;7657;50.140;7.076;2022-07-09T09:21:20;20.30;99.90
15113;DHT22;7657;50.140;7.076;2022-07-09T09:23:49;20.40;99.90
15113;DHT22;7657;50.140;7.076;2022-07-09T09:26:19;20.40;99.90
15113;DHT22;7657;50.140;7.076;2022-07-09T09:28:49;20.40;99.90
15113;DHT22;7657;50.140;7.076;2022-07-09T09:31:21;20.40;99.90
15113;DHT22;7657;50.140;7.076;2022-07-09T09:33:50;20.40;99.90
15113;DHT22;7657;50.140;7.076;2022-07-09T09:36:32;20.40;99.90
15113;DHT22;7657;50.140;7.076;2022-07-09T09:39:10;20.50;99.90
15113;DHT22;7657;50.140;7.076;2022-07-09T09:41:38;20.50;99.90
15113;DHT22;7657;50.140;7.076;2022-07-09T09:44:06;20.60;99.90
15113;DHT22;7657;50.140;7.076;2022-07-09T09:46:36;20.50;99.90
15113;DHT22;7657;50.140;7.076;2022-07-09T09:49:04;20.60;99.90
15113;DHT22;7657;50.140;7.076;2022-07-09T09:51:38;20.60;99.90
15113;DHT22;7657;50.140;7.076;2022-07-09T09:54:06;20.70;99.90
15113;DHT22;7657;50.140;7.076;2022-07-09T09:56:32;20.70;99.90
15113;DHT22;7657;50.140;7.076;2022-07-09T09:59:00;20.90;99.90
15113;DHT22;7657;50.140;7.076;2022-07-09T10:01:28;20.90;99.90
15113;DHT22;7657;50.140;7.076;2022-07-09T10:03:56;21.00;99.90
15113;DHT22;7657;50.140;7.076;2022-07-09T10:06:24;21.00;99.90
15113;DHT22;7657;50.140;7.076;2022-07-09T10:08:54;21.10;99.90
15113;DHT22;7657;50.140;7.076;2022-07-09T10:11:22;21.20;99.90
15113;DHT22;7657;50.140;7.076;2022-07-09T10:13:53;21.20;99.90
15113;DHT22;7657;50.140;7.076;2022-07-09T10:16:33;21.30;99.90
15113;DHT22;7657;50.140;7.076;2022-07-09T10:19:00;21.30;99.90
15113;DHT22;7657;50.140;7.076;2022-07-09T10:21:34;21.30;99.90
15113;DHT22;7657;50.140;7.076;2022-07-09T10:24:04;21.30;99.90
15113;DHT22;7657;50.140;7.076;2022-07-09T10:26:45;21.30;99.90
15113;DHT22;7657;50.140;7.076;2022-07-09T10:29:21;21.40;99.90
15113;DHT22;7657;50.140;7.076;2022-07-09T10:31:48;21.40;99.90
15113;DHT22;7657;50.140;7.076;2022-07-09T10:34:30;21.50;99.90
15113;DHT22;7657;50.140;7.076;2022-07-09T10:36:58;21.60;99.90
15113;DHT22;7657;50.140;7.076;2022-07-09T10:39:26;21.60;99.90
15113;DHT22;7657;50.140;7.076;2022-07-09T10:42:04;21.60;99.90
15113;DHT22;7657;50.140;7.076;2022-07-09T10:44:35;21.70;99.90
15113;DHT22;7657;50.140;7.076;2022-07-09T10:47:03;21.80;99.90
15113;DHT22;7657;50.140;7.076;2022-07-09T10:49:30;21.80;99.90
15113;DHT22;7657;50.140;7.076;2022-07-09T10:52:00;21.80;99.90
15113;DHT22;7657;50.140;7.076;2022-07-09T10:54:28;21.90;99.90
15113;DHT22;7657;50.140;7.076;2022-07-09T10:56:56;22.00;99.90
15113;DHT22;7657;50.140;7.076;2022-07-09T10:59:24;22.10;99.90
15113;DHT22;7657;50.140;7.076;2022-07-09T11:01:52;22.20;99.90
15113;DHT22;7657;50.140;7.076;2022-07-09T11:04:27;22.30;99.90
15113;DHT22;7657;50.140;7.076;2022-07-09T11:06:55;22.30;99.90
15113;DHT22;7657;50.140;7.076;2022-07-09T11:09:23;22.30;99.90
15113;DHT22;7657;50.140;7.076;2022-07-09T11:11:53;22.30;99.90
15113;DHT22;7657;50.140;7.076;2022-07-09T11:14:20;22.30;99.90
15113;DHT22;7657;50.140;7.076;2022-07-09T11:16:54;22.30;99.90
15113;DHT22;7657;50.140;7.076;2022-07-09T11:19:21;22.40;99.90
15113;DHT22;7657;50.140;7.076;2022-07-09T11:21:48;22.40;99.90
15113;DHT22;7657;50.140;7.076;2022-07-09T11:24:17;22.50;99.90
15113;DHT22;7657;50.140;7.076;2022-07-09T11:26:45;22.60;99.90
15113;DHT22;7657;50.140;7.076;2022-07-09T11:29:16;22.80;99.90
15113;DHT22;7657;50.140;7.076;2022-07-09T11:31:47;22.80;99.90
15113;DHT22;7657;50.140;7.076;2022-07-09T11:34:15;22.80;99.90
15113;DHT22;7657;50.140;7.076;2022-07-09T11:36:44;22.80;99.90
15113;DHT22;7657;50.140;7.076;2022-07-09T11:39:22;22.90;99.90
15113;DHT22;7657;50.140;7.076;2022-07-09T11:41:49;22.80;99.90
15113;DHT22;7657;50.140;7.076;2022-07-09T11:44:22;22.80;99.90
15113;DHT22;7657;50.140;7.076;2022-07-09T11:47:03;22.80;99.90
15113;DHT22;7657;50.140;7.076;2022-07-09T11:49:34;22.90;99.90
15113;DHT22;7657;50.140;7.076;2022-07-09T11:52:02;22.90;99.90
15113;DHT22;7657;50.140;7.076;2022-07-09T11:54:29;23.00;99.90
15113;DHT22;7657;50.140;7.076;2022-07-09T11:56:57;23.10;99.90
15113;DHT22;7657;50.140;7.076;2022-07-09T11:59:29;23.10;99.90
15113;DHT22;7657;50.140;7.076;2022-07-09T12:01:59;23.20;99.90
15113;DHT22;7657;50.140;7.076;2022-07-09T12:04:29;23.30;99.90
15113;DHT22;7657;50.140;7.076;2022-07-09T12:06:57;23.20;99.90
15113;DHT22;7657;50.140;7.076;2022-07-09T12:09:29;23.20;99.90
15113;DHT22;7657;50.140;7.076;2022-07-09T12:11:59;23.20;99.90
15113;DHT22;7657;50.140;7.076;2022-07-09T12:14:28;23.20;99.90
15113;DHT22;7657;50.140;7.076;2022-07-09T12:16:55;23.20;99.90
15113;DHT22;7657;50.140;7.076;2022-07-09T12:19:23;23.20;99.90
15113;DHT22;7657;50.140;7.076;2022-07-09T12:21:50;23.20;99.90
15113;DHT22;7657;50.140;7.076;2022-07-09T12:24:17;23.30;99.90
15113;DHT22;7657;50.140;7.076;2022-07-09T12:26:44;23.30;99.90
15113;DHT22;7657;50.140;7.076;2022-07-09T12:29:11;23.30;99.90
15113;DHT22;7657;50.140;7.076;2022-07-09T12:31:39;23.30;99.90
15113;DHT22;7657;50.140;7.076;2022-07-09T12:34:06;23.40;99.90
15113;DHT22;7657;50.140;7.076;2022-07-09T12:36:33;23.40;99.90
15113;DHT22;7657;50.140;7.076;2022-07-09T12:39:00;23.40;99.90
15113;DHT22;7657;50.140;7.076;2022-07-09T12:41:27;23.40;99.90
15113;DHT22;7657;50.140;7.076;2022-07-09T12:43:54;23.40;99.90
15113;DHT22;7657;50.140;7.076;2022-07-09T12:46:21;23.40;99.90
15113;DHT22;7657;50.140;7.076;2022-07-09T12:48:50;23.40;99.90
15113;DHT22;7657;50.140;7.076;2022-07-09T12:51:17;23.40;99.90
15113;DHT22;7657;50.140;7.076;2022-07-09T12:53:44;23.40;99.90
15113;DHT22;7657;50.140;7.076;2022-07-09T12:56:11;23.30;99.90
15113;DHT22;7657;50.140;7.076;2022-07-09T12:58:38;23.40;99.90
15113;DHT22;7657;50.140;7.076;2022-07-09T13:01:05;23.40;99.90
15113;DHT22;7657;50.140;7.076;2022-07-09T13:03:32;23.40;99.90
15113;DHT22;7657;50.140;7.076;2022-07-09T13:06:00;23.40;99.90
15113;DHT22;7657;50.140;7.076;2022-07-09T13:08:27;23.50;99.90
15113;DHT22;7657;50.140;7.076;2022-07-09T13:10:54;23.50;99.90
15113;DHT22;7657;50.140;7.076;2022-07-09T13:13:21;23.50;99.90
15113;DHT22;7657;50.140;7.076;2022-07-09T13:15:48;23.40;99.90
15113;DHT22;7657;50.140;7.076;2022-07-09T13:18:16;23.50;99.90
15113;DHT22;7657;50.140;7.076;2022-07-09T13:20:43;23.50;99.90
15113;DHT22;7657;50.140;7.076;2022-07-09T13:23:12;23.50;99.90
15113;DHT22;7657;50.140;7.076;2022-07-09T13:25:38;23.50;99.90
15113;DHT22;7657;50.140;7.076;2022-07-09T13:28:05;23.30;99.90
15113;DHT22;7657;50.140;7.076;2022-07-09T13:30:32;23.30;99.90
15113;DHT22;7657;50.140;7.076;2022-07-09T13:32:59;23.30;99.90
15113;DHT22;7657;50.140;7.076;2022-07-09T13:35:26;23.30;99.90
15113;DHT22;7657;50.140;7.076;2022-07-09T13:37:53;23.30;99.90
15113;DHT22;7657;50.140;7.076;2022-07-09T13:40:22;23.30;99.90
15113;DHT22;7657;50.140;7.076;2022-07-09T13:42:49;23.40;99.90
15113;DHT22;7657;50.140;7.076;2022-07-09T13:45:16;23.50;99.90
15113;DHT22;7657;50.140;7.076;2022-07-09T13:47:43;23.60;99.90
15113;DHT22;7657;50.140;7.076;2022-07-09T13:50:10;23.80;99.90
15113;DHT22;7657;50.140;7.076;2022-07-09T13:52:37;23.90;99.90
15113;DHT22;7657;50.140;7.076;2022-07-09T13:55:05;23.90;99.90
15113;DHT22;7657;50.140;7.076;2022-07-09T13:57:33;23.90;99.90
15113;DHT22;7657;50.140;7.076;2022-07-09T14:00:00;24.00;99.90
15113;DHT22;7657;50.140;7.076;2022-07-09T14:02:27;24.00;99.90
15113;DHT22;7657;50.140;7.076;2022-07-09T14:04:55;24.30;99.90
15113;DHT22;7657;50.140;7.076;2022-07-09T14:07:22;24.70;99.90
15113;DHT22;7657;50.140;7.076;2022-07-09T14:09:49;25.00;99.90
15113;DHT22;7657;50.140;7.076;2022-07-09T14:12:16;25.20;99.90
15113;DHT22;7657;50.140;7.076;2022-07-09T14:14:45;25.30;99.90
15113;DHT22;7657;50.140;7.076;2022-07-09T14:17:12;25.20;99.90
15113;DHT22;7657;50.140;7.076;2022-07-09T14:19:39;25.40;99.90
15113;DHT22;7657;50.140;7.076;2022-07-09T14:22:06;25.50;99.90
15113;DHT22;7657;50.140;7.076;2022-07-09T14:24:33;25.70;99.90
15113;DHT22;7657;50.140;7.076;2022-07-09T14:27:00;25.80;99.90
15113;DHT22;7657;50.140;7.076;2022-07-09T14:29:27;25.60;99.90
15113;DHT22;7657;50.140;7.076;2022-07-09T14:31:55;25.60;99.90
15113;DHT22;7657;50.140;7.076;2022-07-09T14:34:23;25.90;99.90
15113;DHT22;7657;50.140;7.076;2022-07-09T14:36:50;26.00;99.90
15113;DHT22;7657;50.140;7.076;2022-07-09T14:39:17;26.10;99.90
15113;DHT22;7657;50.140;7.076;2022-07-09T14:41:45;26.30;99.90
15113;DHT22;7657;50.140;7.076;2022-07-09T14:44:12;26.40;99.90
15113;DHT22;7657;50.140;7.076;2022-07-09T14:46:39;26.70;99.90
15113;DHT22;7657;50.140;7.076;2022-07-09T14:49:07;26.80;99.90
15113;DHT22;7657;50.140;7.076;2022-07-09T14:51:36;27.00;99.90
15113;DHT22;7657;50.140;7.076;2022-07-09T14:54:03;27.10;99.90
15113;DHT22;7657;50.140;7.076;2022-07-09T14:56:30;27.20;99.90
15113;DHT22;7657;50.140;7.076;2022-07-09T14:58:58;27.40;99.90
15113;DHT22;7657;50.140;7.076;2022-07-09T15:01:25;27.60;99.90
15113;DHT22;7657;50.140;7.076;2022-07-09T15:03:52;27.80;99.90
15113;DHT22;7657;50.140;7.076;2022-07-09T15:06:20;28.00;99.90
15113;DHT22;7657;50.140;7.076;2022-07-09T15:08:47;28.00;99.90
15113;DHT22;7657;50.140;7.076;2022-07-09T15:11:14;27.70;99.90
15113;DHT22;7657;50.140;7.076;2022-07-09T15:13:41;27.60;99.90
15113;DHT22;7657;50.140;7.076;2022-07-09T15:16:08;27.50;99.90
15113;DHT22;7657;50.140;7.076;2022-07-09T15:18:35;27.30;99.90
15113;DHT22;7657;50.140;7.076;2022-07-09T15:21:03;27.10;99.90
15113;DHT22;7657;50.140;7.076;2022-07-09T15:23:31;27.00;99.90
15113;DHT22;7657;50.140;7.076;2022-07-09T15:25:58;27.20;99.90
15113;DHT22;7657;50.140;7.076;2022-07-09T15:28:25;27.20;99.90
15113;DHT22;7657;50.140;7.076;2022-07-09T15:30:52;27.00;99.90
15113;DHT22;7657;50.140;7.076;2022-07-09T15:33:19;26.70;99.90
15113;DHT22;7657;50.140;7.076;2022-07-09T15:35:46;26.60;99.90
15113;DHT22;7657;50.140;7.076;2022-07-09T15:38:13;26.50;99.90
15113;DHT22;7657;50.140;7.076;2022-07-09T15:40:42;26.30;99.90
15113;DHT22;7657;50.140;7.076;2022-07-09T15:43:08;26.00;99.90
15113;DHT22;7657;50.140;7.076;2022-07-09T15:45:35;25.90;99.90
15113;DHT22;7657;50.140;7.076;2022-07-09T15:48:03;25.40;99.90